Decoded Metar for KCLI (CLINTONVILLE in WI, USA) (IATA:CLI) | Meteo·Mobile Aviation Weather
aviador You're here:

KCLI Decoded Metar

CLINTONVILLE in WI, USA
Report Time2018-12-17 13:55:00
UTC Time2018-12-17 14:00:31
Flight Rules vfr VFR
Wind320° at 06 kt
W.Decomp.*RWY 32: 6.0 kt HW 0.2 kt RCW
RWY 27: 3.7 kt HW 4.7 kt RCW
RWY 04: 1.2 kt HW 5.9 kt LCW
W.Rank320° ranks 11
Current wind is below 320° avg. (7.7)
Visibility9999 m
Phenomena:N/A
Clouds:N/A
Expected CloudBase > 2,400 ft AGL from Temp-Dew spread
CeilingNone
Temp-3°C (ISA -16)
Dew Point-9°C (64% RH)
AAT-8.1°C
QNH1022 hPa
Density Alt-1,450 ft
Elevation820 ft
Report Wrong Elevation
Raw Report
KCLI 171355Z AUTO 32006KT 10SM CLR M03/M09 A3018 RMK AO2
T10271092=

Extra information for KCLI:More info

Metar Taf Metar & Taf Last 4 Metars F.Rules Stats Wind Profile Meteogram Temp Stats Airport Information Weather charts Add Link Nearby VenuesMetar ALERT Operation Metar Decoded Social comments

AIRNAV info for KCLI